Time;durP1;ratioP1;P1;durP2;ratioP2;P2;SDS_P1;SDS_P2;PMS_P1;PMS_P2;Temp;Humidity;BMP_temperature;BMP_pressure;BME280_temperature;BME280_humidity;BME280_pressure;Samples;Min_cycle;Max_cycle;Signal;HPM_P1;HPM_P2
2023/03/20 00:00:33;;;;;;;1.63;1.50;;;;;7.50;96186.00;;;;5012228;28;20570;-71
2023/03/20 00:03:00;;;;;;;0.57;0.57;;;;;7.50;96178.00;;;;5013780;28;20217;-71
2023/03/20 00:05:30;;;;;;;0.90;0.90;;;;;7.40;96180.00;;;;5013392;28;20255;-71
2023/03/20 00:07:58;;;;;;;0.90;0.90;;;;;7.50;96183.00;;;;5013295;28;20223;-70
2023/03/20 00:10:31;;;;;;;0.60;0.60;;;;;7.40;96176.00;;;;5013366;28;20206;-71
2023/03/20 00:12:59;;;;;;;0.80;0.80;;;;;7.30;96176.00;;;;5013822;28;20304;-71
2023/03/20 00:15:32;;;;;;;0.73;0.73;;;;;7.30;96177.00;;;;5013346;28;20197;-70
2023/03/20 00:17:59;;;;;;;0.63;0.63;;;;;7.20;96181.00;;;;5013448;28;20193;-71
2023/03/20 00:20:28;;;;;;;0.60;0.60;;;;;7.00;96185.00;;;;5013808;28;20197;-71
2023/03/20 00:22:56;;;;;;;0.70;0.70;;;;;6.90;96183.00;;;;5013764;28;20213;-70
2023/03/20 00:25:25;;;;;;;0.50;0.50;;;;;6.80;96190.00;;;;5012139;28;20570;-71
2023/03/20 00:27:53;;;;;;;0.63;0.63;;;;;6.90;96182.00;;;;5011902;28;20249;-71
2023/03/20 00:30:28;;;;;;;0.60;0.60;;;;;6.80;96195.00;;;;5013204;28;20292;-71
2023/03/20 00:32:57;;;;;;;0.53;0.53;;;;;6.80;96187.00;;;;5013438;28;20702;-70
2023/03/20 00:35:28;;;;;;;0.80;0.80;;;;;6.70;96187.00;;;;5013304;28;20699;-71
2023/03/20 00:37:58;;;;;;;1.00;1.00;;;;;6.80;96190.00;;;;5013341;28;20181;-70
2023/03/20 00:40:30;;;;;;;0.50;0.50;;;;;6.80;96195.00;;;;5012943;28;20197;-71
2023/03/20 00:43:01;;;;;;;0.60;0.60;;;;;7.00;96186.00;;;;5013296;28;20222;-71
2023/03/20 00:45:30;;;;;;;0.80;0.80;;;;;7.00;96189.00;;;;5013555;28;20192;-71
2023/03/20 00:47:58;;;;;;;0.60;0.60;;;;;7.00;96183.00;;;;5012984;28;20240;-71
2023/03/20 00:50:28;;;;;;;0.50;0.50;;;;;7.10;96171.00;;;;5015499;28;20221;-70
2023/03/20 00:52:58;;;;;;;0.80;0.80;;;;;7.10;96189.00;;;;5017610;28;20217;-71
2023/03/20 00:55:29;;;;;;;0.60;0.60;;;;;6.90;96177.00;;;;5017150;28;20193;-71
2023/03/20 00:57:57;;;;;;;0.60;0.60;;;;;6.90;96171.00;;;;5017175;28;20542;-72
2023/03/20 01:00:33;;;;;;;0.50;0.50;;;;;6.90;96178.00;;;;5017343;28;20259;-70
2023/03/20 01:03:01;;;;;;;0.60;0.60;;;;;6.90;96177.00;;;;5016677;28;20219;-71
2023/03/20 01:05:29;;;;;;;0.70;0.70;;;;;7.00;96180.00;;;;5016708;28;20197;-70
2023/03/20 01:07:58;;;;;;;0.60;0.60;;;;;7.10;96182.00;;;;5016853;28;20609;-70
2023/03/20 01:10:30;;;;;;;0.70;0.70;;;;;7.00;96179.00;;;;5016609;28;20198;-71
2023/03/20 01:13:00;;;;;;;0.40;0.40;;;;;7.10;96182.00;;;;5016962;28;20744;-70
2023/03/20 01:15:32;;;;;;;1.03;1.03;;;;;7.10;96177.00;;;;5015349;28;20194;-71
2023/03/20 01:18:00;;;;;;;0.50;0.50;;;;;6.90;96175.00;;;;5016654;28;20189;-71
2023/03/20 01:20:29;;;;;;;0.63;0.63;;;;;6.80;96181.00;;;;5016822;28;20194;-70
2023/03/20 01:22:58;;;;;;;0.50;0.50;;;;;7.10;96177.00;;;;5016343;28;20213;-71
2023/03/20 01:25:26;;;;;;;0.53;0.53;;;;;6.90;96186.00;;;;5016554;28;20556;-72
2023/03/20 01:27:54;;;;;;;0.50;0.50;;;;;6.90;96179.00;;;;5016469;28;20198;-71
2023/03/20 01:30:24;;;;;;;0.63;0.63;;;;;6.90;96182.00;;;;5016788;28;20296;-70
2023/03/20 01:32:51;;;;;;;0.60;0.60;;;;;6.90;96183.00;;;;5016208;28;20193;-71
2023/03/20 01:35:21;;;;;;;0.60;0.60;;;;;7.00;96188.00;;;;5016452;28;20259;-70
2023/03/20 01:37:51;;;;;;;0.50;0.50;;;;;6.90;96189.00;;;;5014897;28;20201;-70
2023/03/20 01:40:33;;;;;;;0.60;0.60;;;;;6.90;96181.00;;;;5016407;28;20227;-70
2023/03/20 01:43:02;;;;;;;0.60;0.60;;;;;6.60;96189.00;;;;5014645;28;20213;-70
2023/03/20 01:45:34;;;;;;;0.60;0.60;;;;;6.80;96184.00;;;;5014646;28;20209;-71
2023/03/20 01:48:12;;;;;;;0.50;0.50;;;;;6.80;96184.00;;;;5016081;28;20609;-71
2023/03/20 01:50:39;;;;;;;0.50;0.50;;;;;6.70;96185.00;;;;5015871;28;20645;-71
2023/03/20 01:53:13;;;;;;;0.60;0.60;;;;;6.50;96175.00;;;;5015727;28;20214;-70
2023/03/20 01:55:43;;;;;;;0.87;0.87;;;;;6.60;96179.00;;;;5016062;28;20264;-70
2023/03/20 01:58:17;;;;;;;0.60;0.60;;;;;6.60;96177.00;;;;5015945;28;20653;-71
2023/03/20 02:00:47;;;;;;;0.60;0.60;;;;;6.40;96187.00;;;;5015241;28;20181;-71
2023/03/20 02:03:15;;;;;;;0.60;0.60;;;;;6.40;96195.00;;;;5015718;28;20719;-70
2023/03/20 02:05:44;;;;;;;0.60;0.60;;;;;6.60;96188.00;;;;5015827;28;20193;-72
2023/03/20 02:08:24;;;;;;;0.50;0.50;;;;;6.60;96191.00;;;;5015367;28;20244;-71
2023/03/20 02:10:54;;;;;;;0.60;0.60;;;;;6.50;96195.00;;;;5015712;28;20239;-71
2023/03/20 02:13:24;;;;;;;0.70;0.70;;;;;6.40;96203.00;;;;5015358;28;20763;-73
2023/03/20 02:16:01;;;;;;;0.50;0.50;;;;;6.40;96200.00;;;;5015419;28;20198;-72
2023/03/20 02:18:29;;;;;;;0.57;0.57;;;;;6.40;96199.00;;;;5015899;28;20192;-72
2023/03/20 02:21:27;;;;;;;0.60;0.60;;;;;6.30;96207.00;;;;5015281;28;20194;-71
2023/03/20 02:24:30;;;;;;;0.73;0.73;;;;;6.50;96207.00;;;;5015158;28;20696;-71
2023/03/20 02:27:09;;;;;;;0.60;0.60;;;;;6.50;96195.00;;;;4992388;28;20201;-71
2023/03/20 02:29:56;;;;;;;0.60;0.60;;;;;6.60;96192.00;;;;5016082;28;20236;-72
2023/03/20 02:33:23;;;;;;;0.83;0.63;;;;;6.50;96193.00;;;;5017715;28;20186;-71
2023/03/20 02:36:14;;;;;;;0.60;0.60;;;;;6.40;96198.00;;;;5018107;28;20196;-71
2023/03/20 02:39:24;;;;;;;0.50;0.50;;;;;6.30;96205.00;;;;5016829;28;20653;-71
2023/03/20 02:42:00;;;;;;;0.60;0.60;;;;;6.20;96205.00;;;;5014979;28;20232;-71
2023/03/20 02:44:33;;;;;;;0.70;0.70;;;;;6.20;96201.00;;;;5014835;28;20220;-71
2023/03/20 02:47:05;;;;;;;0.60;0.60;;;;;6.20;96201.00;;;;5015043;28;20193;-71
2023/03/20 02:49:52;;;;;;;0.60;0.60;;;;;6.20;96197.00;;;;5015491;28;20201;-71
2023/03/20 02:52:25;;;;;;;0.50;0.50;;;;;6.10;96196.00;;;;5014997;28;20193;-71
2023/03/20 02:55:05;;;;;;;0.50;0.50;;;;;6.30;96200.00;;;;5014643;28;20228;-71
2023/03/20 02:57:42;;;;;;;0.80;0.80;;;;;6.20;96194.00;;;;5014985;28;20600;-71
2023/03/20 03:00:15;;;;;;;0.60;0.60;;;;;6.30;96200.00;;;;5014622;28;20188;-71
2023/03/20 03:02:47;;;;;;;0.50;0.50;;;;;6.20;96202.00;;;;5014482;28;20186;-70
2023/03/20 03:05:19;;;;;;;0.50;0.50;;;;;6.20;96203.00;;;;5014631;28;20180;-71
2023/03/20 03:07:49;;;;;;;0.50;0.50;;;;;6.30;96208.00;;;;5014593;28;20237;-71
2023/03/20 03:10:23;;;;;;;0.57;0.57;;;;;6.40;96210.00;;;;5013561;28;20754;-71
2023/03/20 03:12:53;;;;;;;0.67;0.67;;;;;6.30;96215.00;;;;5014612;28;20546;-71
2023/03/20 03:15:27;;;;;;;0.60;0.60;;;;;6.50;96210.00;;;;5014610;28;20205;-71
2023/03/20 03:17:58;;;;;;;0.40;0.40;;;;;6.50;96211.00;;;;5014656;28;20630;-71
2023/03/20 03:20:29;;;;;;;0.60;0.60;;;;;6.50;96212.00;;;;5014522;28;20178;-71
2023/03/20 03:22:57;;;;;;;0.60;0.60;;;;;6.50;96210.00;;;;5014388;28;20214;-70
2023/03/20 03:25:29;;;;;;;0.60;0.60;;;;;6.40;96217.00;;;;5014147;28;20223;-71
2023/03/20 03:28:04;;;;;;;0.53;0.53;;;;;6.30;96219.00;;;;5014105;28;20247;-71
2023/03/20 03:30:34;;;;;;;0.50;0.50;;;;;6.30;96213.00;;;;5014144;28;20208;-71
2023/03/20 03:33:14;;;;;;;0.70;0.70;;;;;6.30;96223.00;;;;5013765;28;20214;-70
2023/03/20 03:35:41;;;;;;;0.60;0.60;;;;;6.30;96221.00;;;;5014213;28;20189;-72
2023/03/20 03:38:22;;;;;;;0.60;0.60;;;;;6.30;96223.00;;;;5013890;28;20243;-71
2023/03/20 03:41:01;;;;;;;0.60;0.60;;;;;6.30;96227.00;;;;5013818;28;20251;-70
2023/03/20 03:43:34;;;;;;;0.70;0.70;;;;;6.40;96215.00;;;;5014126;28;20225;-70
2023/03/20 03:46:05;;;;;;;0.50;0.50;;;;;6.40;96213.00;;;;5013803;28;20188;-71
2023/03/20 03:48:40;;;;;;;0.73;0.73;;;;;6.40;96228.00;;;;5013806;28;20260;-71
2023/03/20 03:51:12;;;;;;;0.53;0.53;;;;;6.40;96217.00;;;;5013735;28;20251;-71
2023/03/20 03:53:47;;;;;;;0.53;0.53;;;;;6.40;96232.00;;;;5012354;28;20291;-71
2023/03/20 03:56:20;;;;;;;0.60;0.60;;;;;6.30;96233.00;;;;5013990;28;20184;-71
2023/03/20 03:58:51;;;;;;;0.50;0.50;;;;;6.30;96234.00;;;;5013612;28;20213;-71
2023/03/20 04:01:20;;;;;;;0.50;0.50;;;;;6.40;96238.00;;;;5013859;28;20267;-70
2023/03/20 04:03:50;;;;;;;0.60;0.60;;;;;6.50;96228.00;;;;5013689;28;20310;-71
2023/03/20 04:06:19;;;;;;;0.60;0.60;;;;;6.50;96232.00;;;;5013798;28;20193;-71
2023/03/20 04:08:46;;;;;;;0.60;0.60;;;;;6.70;96245.00;;;;5013636;28;20198;-71
2023/03/20 04:11:17;;;;;;;0.60;0.60;;;;;6.60;96231.00;;;;5013395;28;20197;-71
2023/03/20 04:13:47;;;;;;;1.10;1.10;;;;;6.60;96230.00;;;;5013367;28;20217;-72
2023/03/20 04:16:15;;;;;;;0.60;0.60;;;;;6.60;96228.00;;;;5013664;28;20208;-71
2023/03/20 04:18:44;;;;;;;0.50;0.50;;;;;6.60;96220.00;;;;5013615;28;20199;-70
2023/03/20 04:21:12;;;;;;;0.60;0.60;;;;;6.70;96214.00;;;;5013333;28;20197;-71
2023/03/20 04:23:39;;;;;;;0.60;0.60;;;;;6.70;96211.00;;;;5012942;28;20209;-71
2023/03/20 04:26:07;;;;;;;0.70;0.70;;;;;6.70;96208.00;;;;5013253;28;20676;-71
2023/03/20 04:28:36;;;;;;;0.67;0.67;;;;;6.70;96206.00;;;;5013794;28;20201;-71
2023/03/20 04:31:03;;;;;;;0.73;0.73;;;;;6.70;96213.00;;;;5013109;28;20225;-71
2023/03/20 04:33:31;;;;;;;0.60;0.60;;;;;6.60;96216.00;;;;5013115;28;20228;-71
2023/03/20 04:35:58;;;;;;;0.50;0.50;;;;;6.60;96218.00;;;;5056736;22;20580;-64
2023/03/20 04:38:26;;;;;;;0.50;0.50;;;;;6.70;96212.00;;;;5073248;28;20198;-61
2023/03/20 04:40:53;;;;;;;0.60;0.60;;;;;6.60;96216.00;;;;5072915;28;20183;-61
2023/03/20 04:43:21;;;;;;;0.63;0.63;;;;;6.50;96223.00;;;;5072888;28;20229;-61
2023/03/20 04:45:49;;;;;;;0.53;0.53;;;;;6.50;96234.00;;;;5071594;28;20635;-61
2023/03/20 04:48:17;;;;;;;0.70;0.70;;;;;6.40;96238.00;;;;5071574;28;20562;-61
2023/03/20 04:50:47;;;;;;;0.50;0.50;;;;;6.30;96236.00;;;;5071497;28;20590;-61
2023/03/20 04:53:15;;;;;;;0.50;0.50;;;;;6.30;96237.00;;;;5071487;28;20230;-62
2023/03/20 04:55:42;;;;;;;0.80;0.80;;;;;6.20;96244.00;;;;5072975;28;20229;-62
2023/03/20 04:58:10;;;;;;;0.83;0.83;;;;;6.20;96241.00;;;;5071486;28;20686;-60
2023/03/20 05:00:37;;;;;;;0.73;0.73;;;;;6.20;96242.00;;;;5072829;28;20188;-65
2023/03/20 05:03:06;;;;;;;0.77;0.77;;;;;6.20;96248.00;;;;5072803;28;20206;-60
2023/03/20 05:05:36;;;;;;;0.83;0.83;;;;;6.20;96254.00;;;;5072694;28;20219;-61
2023/03/20 05:08:05;;;;;;;0.87;0.87;;;;;6.30;96259.00;;;;5072642;28;20201;-61
2023/03/20 05:10:32;;;;;;;0.70;0.70;;;;;6.30;96252.00;;;;5072947;28;20258;-61
2023/03/20 05:13:00;;;;;;;0.50;0.50;;;;;6.30;96258.00;;;;5072688;28;20190;-61
2023/03/20 05:15:27;;;;;;;0.67;0.67;;;;;6.30;96253.00;;;;5072519;28;20215;-61
2023/03/20 05:17:54;;;;;;;1.00;1.00;;;;;6.20;96246.00;;;;5072574;28;20199;-62
2023/03/20 05:20:23;;;;;;;0.50;0.50;;;;;6.10;96248.00;;;;5072703;28;20278;-61
2023/03/20 05:22:51;;;;;;;0.70;0.70;;;;;6.00;96234.00;;;;5073295;28;20196;-61
2023/03/20 05:25:18;;;;;;;0.67;0.67;;;;;6.10;96242.00;;;;5072825;28;20215;-61
2023/03/20 05:27:47;;;;;;;0.60;0.60;;;;;6.00;96241.00;;;;5072994;28;20244;-61
2023/03/20 05:30:15;;;;;;;1.73;1.00;;;;;6.20;96239.00;;;;5072589;28;20216;-61
2023/03/20 05:32:43;;;;;;;0.70;0.70;;;;;6.30;96245.00;;;;5072562;28;20244;-59
2023/03/20 05:35:11;;;;;;;0.83;0.83;;;;;6.40;96241.00;;;;5072345;28;20641;-61
2023/03/20 05:37:40;;;;;;;0.63;0.63;;;;;6.50;96242.00;;;;5074958;28;20624;-61
2023/03/20 05:40:10;;;;;;;0.90;0.90;;;;;6.50;96248.00;;;;5075926;28;20187;-61
2023/03/20 05:42:38;;;;;;;0.60;0.60;;;;;6.60;96250.00;;;;5076241;28;20199;-62
2023/03/20 05:45:06;;;;;;;0.70;0.70;;;;;6.70;96261.00;;;;5075856;28;20276;-61
2023/03/20 05:47:33;;;;;;;0.90;0.90;;;;;6.60;96269.00;;;;5076073;28;20219;-61
2023/03/20 05:50:01;;;;;;;0.70;0.70;;;;;6.70;96273.00;;;;5074593;28;20223;-61
2023/03/20 05:52:28;;;;;;;0.77;0.77;;;;;6.60;96268.00;;;;5075720;28;20187;-61
2023/03/20 05:54:57;;;;;;;0.70;0.70;;;;;6.70;96265.00;;;;5075560;28;20211;-61
2023/03/20 05:57:24;;;;;;;0.60;0.60;;;;;6.80;96264.00;;;;5075650;28;20566;-61
2023/03/20 05:59:52;;;;;;;0.50;0.50;;;;;6.80;96272.00;;;;5075579;28;20684;-62
2023/03/20 06:02:19;;;;;;;0.60;0.60;;;;;6.90;96264.00;;;;5075813;28;20198;-61
2023/03/20 06:04:47;;;;;;;0.80;0.80;;;;;6.90;96272.00;;;;5075707;28;20191;-61
2023/03/20 06:07:14;;;;;;;0.67;0.63;;;;;6.90;96266.00;;;;5075492;28;20195;-61
2023/03/20 06:09:42;;;;;;;0.97;0.97;;;;;6.90;96272.00;;;;5074037;28;20223;-61
2023/03/20 06:12:11;;;;;;;0.80;0.80;;;;;7.00;96273.00;;;;5075595;28;20198;-60
2023/03/20 06:14:38;;;;;;;0.70;0.70;;;;;7.00;96271.00;;;;5075260;28;20206;-61
2023/03/20 06:17:06;;;;;;;2.33;0.83;;;;;7.10;96277.00;;;;5075248;28;20203;-60
2023/03/20 06:19:33;;;;;;;0.70;0.70;;;;;7.20;96278.00;;;;5075144;28;20203;-60
2023/03/20 06:22:01;;;;;;;0.50;0.50;;;;;7.30;96276.00;;;;5075208;28;20677;-61
2023/03/20 06:24:28;;;;;;;0.50;0.50;;;;;7.40;96280.00;;;;5075069;28;20647;-61
2023/03/20 06:26:56;;;;;;;0.50;0.50;;;;;7.50;96274.00;;;;5075567;28;20289;-61
2023/03/20 06:29:25;;;;;;;0.50;0.50;;;;;7.50;96264.00;;;;5075227;28;20201;-60
2023/03/20 06:31:52;;;;;;;0.50;0.50;;;;;7.60;96259.00;;;;5075476;28;20211;-60
2023/03/20 06:34:19;;;;;;;0.73;0.73;;;;;7.70;96260.00;;;;5074917;28;20191;-62
2023/03/20 06:36:47;;;;;;;0.60;0.60;;;;;7.80;96268.00;;;;5074756;28;20229;-62
2023/03/20 06:39:14;;;;;;;0.70;0.70;;;;;7.90;96264.00;;;;5074782;28;20758;-60
2023/03/20 06:41:42;;;;;;;0.63;0.63;;;;;8.10;96276.00;;;;5073518;28;20250;-61
2023/03/20 06:44:10;;;;;;;0.60;0.60;;;;;8.20;96270.00;;;;5074701;28;20192;-61
2023/03/20 06:46:38;;;;;;;0.60;0.60;;;;;8.30;96267.00;;;;5075334;28;20555;-59
2023/03/20 06:49:06;;;;;;;0.60;0.60;;;;;8.40;96264.00;;;;5074356;28;20294;-60
2023/03/20 06:51:33;;;;;;;0.60;0.60;;;;;8.50;96271.00;;;;5073333;28;20307;-61
2023/03/20 06:54:01;;;;;;;27.37;1.00;;;;;8.50;96277.00;;;;5073266;28;20219;-60
2023/03/20 06:56:28;;;;;;;0.70;0.70;;;;;8.40;96272.00;;;;5074412;28;20713;-61
2023/03/20 06:58:56;;;;;;;0.70;0.70;;;;;8.50;96280.00;;;;5074640;28;20190;-61
2023/03/20 07:01:23;;;;;;;0.70;0.70;;;;;8.60;96284.00;;;;5062517;28;20192;-61
2023/03/20 07:03:52;;;;;;;0.50;0.50;;;;;8.70;96281.00;;;;5068175;28;20666;-62
2023/03/20 07:06:20;;;;;;;0.80;0.80;;;;;8.60;96299.00;;;;5072603;28;20273;-60
2023/03/20 07:08:47;;;;;;;0.70;0.70;;;;;8.60;96318.00;;;;5070092;28;20208;-60
2023/03/20 07:11:15;;;;;;;0.70;0.70;;;;;8.50;96324.00;;;;5066546;28;20318;-61
2023/03/20 07:13:42;;;;;;;0.73;0.73;;;;;8.40;96312.00;;;;5071670;28;20200;-61
2023/03/20 07:16:10;;;;;;;0.50;0.50;;;;;8.30;96308.00;;;;5072471;28;20215;-61
2023/03/20 07:18:38;;;;;;;0.60;0.60;;;;;8.40;96310.00;;;;5071810;28;20214;-63
2023/03/20 07:21:08;;;;;;;0.50;0.50;;;;;8.30;96312.00;;;;5071907;28;20202;-62
2023/03/20 07:23:35;;;;;;;0.70;0.70;;;;;8.40;96304.00;;;;5071958;28;20196;-61
2023/03/20 07:26:04;;;;;;;0.60;0.60;;;;;8.50;96301.00;;;;5071685;28;20733;-61
2023/03/20 07:28:31;;;;;;;0.80;0.80;;;;;8.60;96315.00;;;;5071901;28;20195;-63
2023/03/20 07:30:59;;;;;;;0.63;0.63;;;;;8.60;96313.00;;;;5071759;28;20215;-60
2023/03/20 07:33:26;;;;;;;0.73;0.73;;;;;8.50;96311.00;;;;5071801;28;20646;-60
2023/03/20 07:35:54;;;;;;;0.60;0.60;;;;;8.80;96308.00;;;;5071620;28;20230;-60
2023/03/20 07:38:24;;;;;;;0.70;0.70;;;;;8.70;96305.00;;;;5070556;28;20199;-60
2023/03/20 07:40:54;;;;;;;0.70;0.70;;;;;8.60;96307.00;;;;5071610;28;20230;-61
2023/03/20 07:43:22;;;;;;;1.43;1.33;;;;;8.80;96302.00;;;;5071660;28;20544;-60
2023/03/20 07:45:49;;;;;;;0.70;0.70;;;;;8.80;96303.00;;;;5071331;28;20298;-60
2023/03/20 07:48:16;;;;;;;0.70;0.70;;;;;9.10;96305.00;;;;5071459;28;20607;-61
2023/03/20 07:50:44;;;;;;;0.53;0.53;;;;;9.00;96312.00;;;;5071378;28;20211;-61
2023/03/20 07:53:12;;;;;;;0.67;0.67;;;;;8.90;96314.00;;;;5071578;28;20565;-63
2023/03/20 07:55:40;;;;;;;0.60;0.60;;;;;8.90;96308.00;;;;5071314;28;20223;-62
2023/03/20 07:58:08;;;;;;;0.90;0.90;;;;;8.90;96304.00;;;;5071096;28;20191;-62
2023/03/20 08:00:36;;;;;;;0.60;0.60;;;;;9.00;96306.00;;;;5069564;28;20233;-62
2023/03/20 08:03:03;;;;;;;0.50;0.50;;;;;9.40;96314.00;;;;5071181;28;20594;-59
2023/03/20 08:05:31;;;;;;;0.50;0.50;;;;;9.70;96322.00;;;;5071477;28;20552;-61
2023/03/20 08:07:59;;;;;;;0.67;0.60;;;;;9.00;96313.00;;;;5071259;28;20203;-61
2023/03/20 08:10:26;;;;;;;0.50;0.50;;;;;9.00;96307.00;;;;5069947;28;20230;-60
2023/03/20 08:12:55;;;;;;;0.50;0.50;;;;;9.00;96316.00;;;;5070587;28;20207;-61
2023/03/20 08:15:23;;;;;;;0.77;0.77;;;;;8.70;96311.00;;;;5071056;28;20215;-61
2023/03/20 08:17:50;;;;;;;0.60;0.60;;;;;8.90;96311.00;;;;5070970;28;20745;-60
2023/03/20 08:20:18;;;;;;;0.70;0.70;;;;;9.00;96310.00;;;;5071164;28;20207;-60
2023/03/20 08:22:48;;;;;;;0.60;0.60;;;;;9.10;96307.00;;;;5071075;28;20759;-60
2023/03/20 08:25:16;;;;;;;0.60;0.60;;;;;9.20;96316.00;;;;5069951;28;20257;-60
2023/03/20 08:27:44;;;;;;;0.63;0.63;;;;;9.20;96313.00;;;;5070640;28;20195;-61
2023/03/20 08:30:13;;;;;;;0.60;0.60;;;;;9.00;96312.00;;;;5070991;28;20204;-62
2023/03/20 08:32:41;;;;;;;0.97;0.97;;;;;9.60;96304.00;;;;5070834;28;20709;-61
2023/03/20 08:35:10;;;;;;;0.90;0.90;;;;;9.80;96306.00;;;;5069475;28;20292;-62
2023/03/20 08:37:37;;;;;;;0.60;0.60;;;;;9.70;96313.00;;;;5070695;28;20206;-61
2023/03/20 08:40:06;;;;;;;0.60;0.60;;;;;9.40;96311.00;;;;5071272;28;20206;-61
2023/03/20 08:42:33;;;;;;;0.60;0.60;;;;;9.80;96291.00;;;;5070122;28;20196;-63
2023/03/20 08:45:01;;;;;;;0.70;0.70;;;;;9.70;96299.00;;;;5069861;28;20219;-61
2023/03/20 08:47:29;;;;;;;0.70;0.70;;;;;9.70;96297.00;;;;5070546;28;20202;-61
2023/03/20 08:49:57;;;;;;;1.13;1.13;;;;;9.70;96302.00;;;;5069457;28;20678;-61
2023/03/20 08:52:26;;;;;;;0.77;0.77;;;;;9.80;96298.00;;;;5070242;28;20698;-61
2023/03/20 08:54:53;;;;;;;0.90;0.90;;;;;10.30;96296.00;;;;5071266;28;20626;-63
2023/03/20 08:57:21;;;;;;;0.77;0.77;;;;;10.70;96296.00;;;;5070412;28;20195;-61
2023/03/20 08:59:49;;;;;;;0.83;0.83;;;;;10.60;96300.00;;;;5069863;28;20237;-61
2023/03/20 09:02:16;;;;;;;0.40;0.40;;;;;10.70;96304.00;;;;5070763;28;20242;-61
2023/03/20 09:04:45;;;;;;;0.57;0.57;;;;;10.70;96303.00;;;;5070950;28;20202;-62
2023/03/20 09:07:13;;;;;;;0.60;0.60;;;;;10.70;96309.00;;;;5070609;28;20227;-61
2023/03/20 09:09:41;;;;;;;1.13;1.13;;;;;10.80;96302.00;;;;5066475;28;20663;-62
2023/03/20 09:12:08;;;;;;;1.13;0.73;;;;;11.00;96302.00;;;;5071112;28;20223;-62
2023/03/20 09:14:37;;;;;;;0.77;0.77;;;;;11.00;96314.00;;;;5074563;28;20209;-62
2023/03/20 09:17:05;;;;;;;0.70;0.70;;;;;11.40;96310.00;;;;5072083;28;20199;-62
2023/03/20 09:19:32;;;;;;;0.60;0.60;;;;;11.70;96316.00;;;;5072018;28;20205;-62
2023/03/20 09:22:01;;;;;;;1.10;1.10;;;;;11.90;96315.00;;;;5074045;28;20191;-60
2023/03/20 09:24:30;;;;;;;0.60;0.60;;;;;11.80;96308.00;;;;5074580;28;20206;-60
2023/03/20 09:26:57;;;;;;;0.70;0.70;;;;;11.40;96308.00;;;;5073846;28;20211;-60
2023/03/20 09:29:25;;;;;;;0.60;0.60;;;;;11.70;96310.00;;;;5074143;28;20541;-61
2023/03/20 09:31:54;;;;;;;0.97;0.97;;;;;11.30;96297.00;;;;5073785;28;20215;-60
2023/03/20 09:34:21;;;;;;;0.93;0.93;;;;;11.80;96306.00;;;;5073801;28;20206;-60
2023/03/20 09:36:49;;;;;;;0.70;0.70;;;;;11.70;96300.00;;;;5073583;28;20265;-61
2023/03/20 09:39:18;;;;;;;0.60;0.60;;;;;12.00;96307.00;;;;5073748;28;20554;-63
2023/03/20 09:41:48;;;;;;;0.93;0.93;;;;;12.30;96308.00;;;;5074324;28;20274;-61
2023/03/20 09:44:26;;;;;;;1.13;1.03;;;;;12.30;96302.00;;;;5072073;28;20199;-61
2023/03/20 09:47:07;;;;;;;0.60;0.60;;;;;12.00;96318.00;;;;5073789;28;20222;-61
2023/03/20 09:49:45;;;;;;;0.60;0.60;;;;;11.30;96313.00;;;;5073301;28;20194;-61
2023/03/20 09:52:24;;;;;;;0.50;0.50;;;;;11.70;96314.00;;;;5073394;28;20636;-61
2023/03/20 09:54:57;;;;;;;0.80;0.80;;;;;11.60;96327.00;;;;5073094;28;20191;-61
2023/03/20 09:57:28;;;;;;;0.70;0.70;;;;;11.80;96326.00;;;;5073608;28;20263;-61
2023/03/20 09:59:58;;;;;;;0.50;0.50;;;;;11.70;96329.00;;;;5070654;28;20187;-61
2023/03/20 10:02:36;;;;;;;0.67;0.67;;;;;11.60;96315.00;;;;5072949;28;20589;-61
2023/03/20 10:05:11;;;;;;;0.63;0.63;;;;;12.00;96318.00;;;;5071030;28;20277;-61
2023/03/20 10:07:39;;;;;;;0.80;0.80;;;;;11.90;96318.00;;;;5073009;28;20197;-61
2023/03/20 10:10:13;;;;;;;0.90;0.90;;;;;12.10;96317.00;;;;5073333;28;20282;-61
2023/03/20 10:12:49;;;;;;;0.60;0.60;;;;;11.80;96328.00;;;;5073007;28;20230;-61
2023/03/20 10:15:25;;;;;;;0.50;0.50;;;;;11.80;96327.00;;;;5071532;28;20219;-61
2023/03/20 10:18:02;;;;;;;1.00;1.00;;;;;11.80;96322.00;;;;5071479;28;20194;-62
2023/03/20 10:20:35;;;;;;;0.70;0.70;;;;;11.50;96334.00;;;;5073165;28;20198;-61
2023/03/20 10:23:13;;;;;;;0.50;0.50;;;;;11.70;96336.00;;;;5072599;28;20199;-61
2023/03/20 10:25:46;;;;;;;0.50;0.50;;;;;11.80;96335.00;;;;5073059;28;20297;-61
2023/03/20 10:28:18;;;;;;;0.80;0.80;;;;;11.90;96339.00;;;;5073378;28;20180;-61
2023/03/20 10:30:56;;;;;;;0.40;0.40;;;;;11.80;96340.00;;;;5072955;28;20618;-61
2023/03/20 10:33:37;;;;;;;0.70;0.70;;;;;11.60;96325.00;;;;5071252;28;20206;-61
2023/03/20 10:36:18;;;;;;;0.60;0.60;;;;;11.70;96333.00;;;;5069006;22;20220;-69
2023/03/20 10:38:53;;;;;;;0.73;0.73;;;;;11.90;96322.00;;;;5029859;28;20196;-69
2023/03/20 10:41:25;;;;;;;0.60;0.60;;;;;12.10;96321.00;;;;5033158;28;20700;-69
2023/03/20 10:43:55;;;;;;;0.70;0.70;;;;;12.50;96318.00;;;;5032287;28;20648;-69
2023/03/20 10:46:27;;;;;;;0.53;0.53;;;;;12.10;96319.00;;;;5031714;28;20224;-69
2023/03/20 10:49:00;;;;;;;0.50;0.50;;;;;11.80;96322.00;;;;5031756;28;20189;-69
2023/03/20 10:51:40;;;;;;;0.77;0.77;;;;;11.90;96319.00;;;;5032743;28;20296;-69
2023/03/20 10:54:21;;;;;;;0.70;0.70;;;;;11.80;96315.00;;;;5009588;28;20193;-68
2023/03/20 10:56:54;;;;;;;1.03;1.03;;;;;11.80;96324.00;;;;5012850;28;20225;-68
2023/03/20 10:59:25;;;;;;;1.70;1.30;;;;;11.80;96325.00;;;;5012292;28;20216;-69
2023/03/20 11:01:53;;;;;;;0.73;0.73;;;;;11.90;96322.00;;;;5012986;28;20181;-69
2023/03/20 11:04:21;;;;;;;0.50;0.50;;;;;12.10;96325.00;;;;5019278;28;20208;-69
2023/03/20 11:06:55;;;;;;;0.70;0.70;;;;;12.20;96331.00;;;;5012517;28;20221;-68
2023/03/20 11:09:25;;;;;;;0.70;0.70;;;;;12.30;96328.00;;;;5027954;28;20199;-69
2023/03/20 11:11:58;;;;;;;0.47;0.47;;;;;12.30;96318.00;;;;5032237;28;20254;-68
2023/03/20 11:14:27;;;;;;;0.67;0.67;;;;;12.30;96324.00;;;;5030714;28;20256;-68
2023/03/20 11:16:59;;;;;;;0.50;0.50;;;;;12.40;96322.00;;;;5030783;28;20216;-69
2023/03/20 11:19:27;;;;;;;0.57;0.57;;;;;12.40;96325.00;;;;5031692;28;20189;-69
2023/03/20 11:21:56;;;;;;;0.80;0.80;;;;;12.00;96324.00;;;;5031941;28;20188;-68
2023/03/20 11:24:28;;;;;;;0.50;0.50;;;;;12.00;96324.00;;;;5031701;28;20208;-69
2023/03/20 11:27:07;;;;;;;0.60;0.60;;;;;12.10;96320.00;;;;5031843;28;20696;-69
2023/03/20 11:29:35;;;;;;;0.70;0.70;;;;;11.90;96323.00;;;;5007510;28;20197;-69
2023/03/20 11:32:07;;;;;;;0.50;0.50;;;;;12.60;96323.00;;;;5012126;28;20700;-69
2023/03/20 11:34:39;;;;;;;0.90;0.90;;;;;12.50;96322.00;;;;5011927;28;20193;-70
2023/03/20 11:37:21;;;;;;;0.70;0.70;;;;;12.20;96322.00;;;;5011850;28;20232;-69
2023/03/20 11:39:59;;;;;;;0.53;0.53;;;;;12.20;96329.00;;;;5011995;28;20190;-69
2023/03/20 11:42:29;;;;;;;0.60;0.60;;;;;12.40;96324.00;;;;5013118;28;20308;-71
2023/03/20 11:45:03;;;;;;;0.60;0.60;;;;;11.80;96322.00;;;;5014469;28;20189;-71
2023/03/20 11:47:34;;;;;;;0.50;0.50;;;;;11.60;96322.00;;;;5035411;28;20200;-71
2023/03/20 11:50:04;;;;;;;0.60;0.60;;;;;12.00;96324.00;;;;5035069;28;20228;-72
2023/03/20 11:52:34;;;;;;;0.60;0.60;;;;;12.30;96321.00;;;;5026724;28;20220;-72
2023/03/20 11:55:05;;;;;;;0.50;0.50;;;;;11.90;96321.00;;;;5037319;28;20200;-73
2023/03/20 11:57:36;;;;;;;0.57;0.57;;;;;12.40;96316.00;;;;5017865;28;20193;-71
2023/03/20 12:00:15;;;;;;;0.57;0.57;;;;;12.40;96308.00;;;;5034004;28;20188;-73
2023/03/20 12:02:43;;;;;;;0.60;0.60;;;;;12.40;96317.00;;;;5027729;28;20201;-73
2023/03/20 12:05:31;;;;;;;0.60;0.60;;;;;12.50;96319.00;;;;5035058;28;20308;-71
2023/03/20 12:08:01;;;;;;;0.60;0.60;;;;;12.60;96308.00;;;;5028696;28;20225;-71
2023/03/20 12:10:33;;;;;;;0.70;0.70;;;;;12.00;96310.00;;;;5015471;28;20208;-70
2023/03/20 12:13:06;;;;;;;0.53;0.53;;;;;12.20;96306.00;;;;5030386;28;20200;-65
2023/03/20 12:15:36;;;;;;;0.50;0.50;;;;;12.10;96307.00;;;;5017139;28;20212;-73
2023/03/20 12:18:09;;;;;;;0.87;0.87;;;;;12.40;96300.00;;;;5017014;28;20196;-69
2023/03/20 12:20:41;;;;;;;0.70;0.70;;;;;12.80;96300.00;;;;5031935;28;20196;-69
2023/03/20 12:23:13;;;;;;;0.60;0.60;;;;;12.10;96299.00;;;;5032005;28;20593;-70
2023/03/20 12:25:48;;;;;;;0.50;0.50;;;;;12.40;96305.00;;;;5030459;28;20213;-69
2023/03/20 12:28:25;;;;;;;0.90;0.90;;;;;12.30;96300.00;;;;5030839;28;20570;-69
2023/03/20 12:31:03;;;;;;;0.63;0.63;;;;;12.50;96298.00;;;;5030593;28;20188;-69
2023/03/20 12:33:41;;;;;;;0.67;0.67;;;;;12.20;96302.00;;;;5007041;28;20259;-69
2023/03/20 12:36:15;;;;;;;0.67;0.67;;;;;12.10;96310.00;;;;5011492;28;20708;-69
2023/03/20 12:38:43;;;;;;;0.90;0.90;;;;;11.80;96299.00;;;;5009770;28;20251;-69
2023/03/20 12:41:15;;;;;;;0.87;0.87;;;;;11.70;96296.00;;;;5011688;28;20224;-69